Maxwell Paul Moran — WDJ2221 — position and weather

sailwx.info

Track history (hours):
 
Tides and Currents Weather Stations Pressure Air Temp Water Temp Dewpoint Dewpoint Depression Visibility Wind Speed Wind Dir Waves Ship Positions

Maxwell Paul Moran

Owner: MORAN TOWING CORPORATION, New Canaan, CT. More information available from US FCC via Universal Licensing System and Coast Guard Vessel Documentation Center.

Last reported at 2018-Feb-24 07:30 UTC. Time now 2018-Feb-24 07:55 UTC.
Position N 36°56' W 076°20'.

Length 28 m; draft 5.2 m.

Type: Tug. MMSI: 367756350.

Date/timePositionNaut miles runAvg speedWind from/ knotsBaromVisibWave heightAir tempDewpointWater temp
2018-Feb-24 07:30N 36°56' W 076°20'0 0.0
2018-Feb-24 06:56N 36°56' W 076°20'0 0.0
2018-Feb-24 06:26N 36°56' W 076°20'0 0.0
2018-Feb-24 05:56N 36°56' W 076°20'0 0.0
2018-Feb-24 05:30N 36°56' W 076°20'0 0.0
2018-Feb-24 05:00N 36°56' W 076°20'0 0.0
2018-Feb-24 04:28N 36°56' W 076°20'0 0.0
2018-Feb-24 03:58N 36°56' W 076°20'0 0.0
2018-Feb-24 03:17N 36°56' W 076°20'0 0.0
2018-Feb-24 02:57N 36°56' W 076°20'0 0.0
2018-Feb-24 02:26N 36°56' W 076°20'0 0.0
2018-Feb-24 02:00N 36°56' W 076°20'0 0.0
2018-Feb-24 01:30N 36°56' W 076°20'0 0.0
2018-Feb-23 23:43N 36°56' W 076°20'0 0.0
2018-Feb-23 23:28N 36°56' W 076°20'0 0.0
2018-Feb-23 22:56N 36°56' W 076°20'0 0.9
2018-Feb-23 22:26N 36°55' W 076°20'0 0.0
2018-Feb-23 22:00N 36°55' W 076°20'2 4.0
2018-Feb-23 21:25N 36°53' W 076°20'0 0.9
2018-Feb-23 21:00N 36°53' W 076°20'0 0.0
2018-Feb-23 20:21N 36°53' W 076°20'0 0.0
2018-Feb-23 19:57N 36°53' W 076°20'0 0.0
2018-Feb-23 19:29N 36°53' W 076°20'1 2.2
2018-Feb-23 18:53N 36°52' W 076°19'1 2.1
2018-Feb-23 18:30N 36°52' W 076°20'3 5.7
2018-Feb-23 17:59N 36°55' W 076°20'5 9.2
2018-Feb-23 17:25N 36°60' W 076°18'5 9.8
2018-Feb-23 16:57N 37°00' W 076°12'5 9.8
2018-Feb-23 16:27N 36°59' W 076°07'510.1
2018-Feb-23 15:58N 36°57' W 076°01'1 1.0
2018-Feb-23 15:20N 36°57' W 076°01'1 0.6
2018-Feb-23 14:19N 36°57' W 076°02'3 6.8
2018-Feb-23 13:57N 36°58' W 076°05'4 8.4
2018-Feb-23 13:27N 36°59' W 076°10'5 8.9
2018-Feb-23 12:56N 37°00' W 076°16'4 9.2
2018-Feb-23 12:28N 36°58' W 076°20'4 8.9
2018-Feb-23 12:00N 36°54' W 076°20'1 2.7
2018-Feb-23 11:30N 36°53' W 076°21'0 0.3
2018-Feb-23 11:00N 36°53' W 076°21'0 0.2
2018-Feb-23 10:29N 36°53' W 076°21'0 0.4
2018-Feb-23 10:00N 36°53' W 076°21'0 0.0
2018-Feb-23 09:30N 36°53' W 076°21'0 0.0
2018-Feb-23 08:58N 36°53' W 076°21'0 0.0
2018-Feb-23 08:30N 36°53' W 076°21'0 0.0
2018-Feb-23 08:00N 36°53' W 076°21'0 0.0
2018-Feb-23 07:28N 36°53' W 076°21'0 0.0
2018-Feb-23 07:00N 36°53' W 076°21'0 0.0
2018-Feb-23 06:27N 36°53' W 076°21'0 0.0
2018-Feb-23 06:00N 36°53' W 076°21'1 1.5
2018-Feb-23 05:29N 36°53' W 076°20'1 1.7
2018-Feb-23 05:01N 36°52' W 076°21'0 0.0
2018-Feb-23 04:30N 36°52' W 076°21'0 0.0
2018-Feb-23 04:00N 36°52' W 076°21'1 1.0
2018-Feb-23 02:59N 36°53' W 076°20'0 0.3
2018-Feb-23 02:30N 36°53' W 076°20'2 3.7
2018-Feb-23 02:00N 36°55' W 076°20'2 3.7
2018-Feb-23 01:30N 36°53' W 076°20'0 0.0
2018-Feb-23 00:59N 36°53' W 076°20'0 0.0
2018-Feb-23 00:30N 36°53' W 076°20'0 0.0
2018-Feb-23 00:00N 36°53' W 076°20'0 0.0
2018-Feb-22 23:30N 36°53' W 076°20'0 0.0
2018-Feb-22 23:00N 36°53' W 076°20'0 0.6
2018-Feb-22 22:30N 36°52' W 076°20'1 2.1
2018-Feb-22 22:00N 36°51' W 076°20'0 0.3
2018-Feb-22 21:30N 36°51' W 076°19'0 0.1
2018-Feb-22 21:00N 36°51' W 076°19'1 2.4
2018-Feb-22 20:28N 36°53' W 076°20'0 0.0
2018-Feb-22 20:00N 36°53' W 076°20'1 2.7
2018-Feb-22 19:30N 36°51' W 076°19'3 5.2
2018-Feb-22 19:00N 36°50' W 076°16'0 0.0
2018-Feb-22 18:30N 36°50' W 076°16'2 4.1
2018-Feb-22 18:00N 36°51' W 076°19'2 3.2
2018-Feb-22 17:27N 36°53' W 076°20'0 0.2
2018-Feb-22 17:00N 36°53' W 076°20'0 0.2
2018-Feb-22 16:30N 36°53' W 076°20'0 0.3
2018-Feb-22 16:00N 36°53' W 076°20'3 5.5
2018-Feb-22 15:30N 36°51' W 076°18'1 2.1
2018-Feb-22 15:01N 36°50' W 076°16'0 0.0
2018-Feb-22 14:30N 36°50' W 076°16'3 5.1
2018-Feb-22 14:00N 36°51' W 076°19'1 2.6
2018-Feb-22 13:29N 36°53' W 076°20'1 2.7
2018-Feb-22 12:56N 36°54' W 076°20'1 3.5
2018-Feb-22 12:30N 36°53' W 076°20'0 0.3
2018-Feb-22 11:57N 36°53' W 076°20'0 0.4
2018-Feb-22 11:30N 36°53' W 076°20'0 0.2
2018-Feb-22 11:00N 36°53' W 076°20'0 0.0
2018-Feb-22 10:29N 36°53' W 076°20'0 0.1
2018-Feb-22 10:00N 36°53' W 076°20'0 0.0
2018-Feb-22 09:30N 36°53' W 076°20'0 0.0
2018-Feb-22 09:00N 36°53' W 076°20'0 0.0
2018-Feb-22 08:31N 36°53' W 076°20'0 0.0
2018-Feb-22 08:00N 36°53' W 076°20'0 0.0
2018-Feb-22 07:30N 36°53' W 076°20'0 0.0
2018-Feb-22 07:00N 36°53' W 076°20'0 0.0
2018-Feb-22 06:29N 36°53' W 076°20'1 2.0
2018-Feb-22 06:00N 36°52' W 076°21'0 0.3
2018-Feb-22 05:30N 36°53' W 076°21'0 0.0
2018-Feb-22 05:00N 36°53' W 076°21'1 2.1
2018-Feb-22 04:30N 36°53' W 076°20'0 0.0
2018-Feb-22 04:00N 36°53' W 076°20'0 0.0
2018-Feb-22 03:30N 36°53' W 076°20'0 0.0
2018-Feb-22 02:57N 36°53' W 076°20'0 0.3
2018-Feb-22 02:30N 36°53' W 076°20'1 1.9
2018-Feb-22 01:52N 36°54' W 076°20'1 1.6
2018-Feb-22 01:29N 36°53' W 076°20'3 6.8
2018-Feb-22 01:00N 36°51' W 076°18'1 2.3
2018-Feb-22 00:30N 36°50' W 076°16'0 0.0
2018-Feb-22 00:01N 36°50' W 076°16'0 0.0
2018-Feb-21 23:30N 36°50' W 076°16'0 0.0
2018-Feb-21 23:00N 36°50' W 076°16'3 4.7
2018-Feb-21 22:27N 36°52' W 076°19'0 0.5
2018-Feb-21 21:56N 36°51' W 076°19'0 0.4
2018-Feb-21 21:30N 36°52' W 076°19'2 3.3
2018-Feb-21 21:00N 36°53' W 076°20'1 1.4
2018-Feb-21 20:29N 36°53' W 076°20'4 7.9
2018-Feb-21 20:00N 36°49' W 076°17'1 1.9
2018-Feb-21 19:30N 36°48' W 076°17'4 8.0
2018-Feb-21 18:58N 36°52' W 076°20'1 1.2
2018-Feb-21 18:26N 36°53' W 076°20'0 0.1
2018-Feb-21 18:00N 36°53' W 076°20'1 1.7
2018-Feb-21 17:30N 36°52' W 076°19'1 1.1
2018-Feb-21 17:00N 36°51' W 076°20'1 1.0
2018-Feb-21 16:30N 36°52' W 076°19'1 2.0
2018-Feb-21 16:00N 36°53' W 076°20'0 0.4
2018-Feb-21 15:26N 36°53' W 076°20'2 4.6
2018-Feb-21 15:00N 36°51' W 076°18'2 3.4
2018-Feb-21 14:30N 36°50' W 076°16'0 0.0
2018-Feb-21 14:00N 36°50' W 076°16'0 0.0
2018-Feb-21 13:30N 36°50' W 076°16'1 2.5
2018-Feb-21 13:00N 36°50' W 076°18'2 3.4
2018-Feb-21 12:30N 36°48' W 076°17'1 2.4
2018-Feb-21 12:00N 36°49' W 076°17'3 5.4
2018-Feb-21 11:30N 36°52' W 076°19'2 3.3
2018-Feb-21 11:00N 36°52' W 076°21'0 0.0
2018-Feb-21 10:30N 36°52' W 076°21'0 0.5
2018-Feb-21 09:58N 36°53' W 076°21'1 2.2
2018-Feb-21 09:26N 36°54' W 076°20'3 7.1
2018-Feb-21 09:00N 36°57' W 076°20'3 6.4
2018-Feb-21 08:30N 36°60' W 076°19'5 9.4
2018-Feb-21 08:00N 36°55' W 076°20'2 5.0
2018-Feb-21 07:30N 36°53' W 076°20'0 0.0
2018-Feb-21 07:00N 36°53' W 076°20'0 0.0
2018-Feb-21 06:31N 36°53' W 076°20'0 0.0
2018-Feb-21 06:00N 36°53' W 076°20'0 0.0
2018-Feb-21 05:29N 36°53' W 076°20'0 0.0
2018-Feb-21 05:01N 36°53' W 076°20'0 0.0
2018-Feb-21 03:24N 36°53' W 076°20'0 0.3
2018-Feb-21 03:00N 36°53' W 076°20'0 0.3
2018-Feb-21 02:30N 36°53' W 076°20'2 4.3
2018-Feb-21 02:00N 36°55' W 076°20'1 1.3
2018-Feb-21 01:29N 36°54' W 076°20'2 3.1
2018-Feb-21 00:59N 36°53' W 076°20'0 0.3
2018-Feb-21 00:30N 36°53' W 076°20'0 0.1
2018-Feb-21 00:00N 36°53' W 076°20'0 0.0
2018-Feb-20 23:18N 36°53' W 076°20'0 0.0
2018-Feb-20 22:51N 36°53' W 076°20'0 0.0
2018-Feb-20 22:08N 36°53' W 076°20'0 0.0
2018-Feb-20 21:58N 36°53' W 076°20'3 7.4
2018-Feb-20 21:30N 36°50' W 076°17'0 0.7
2018-Feb-20 21:00N 36°50' W 076°16'0 0.5
2018-Feb-20 20:29N 36°50' W 076°17'2 4.1
2018-Feb-20 20:00N 36°51' W 076°19'2 1.8
2018-Feb-20 19:07N 36°53' W 076°20'0 0.0
2018-Feb-20 18:56N 36°53' W 076°20'0 0.0
2018-Feb-20 18:03N 36°53' W 076°20'0 0.0
2018-Feb-20 17:59N 36°53' W 076°20'0 0.4
2018-Feb-20 17:30N 36°53' W 076°20'0 0.0
2018-Feb-20 17:00N 36°53' W 076°20'0 0.0
2018-Feb-20 16:30N 36°53' W 076°20'0 0.1
2018-Feb-20 16:00N 36°53' W 076°20'0 0.0
2018-Feb-20 13:55N 36°53' W 076°20'0 0.0
2018-Feb-20 13:30N 36°53' W 076°20'0 0.0
2018-Feb-20 12:53N 36°53' W 076°20'0 0.0
2018-Feb-20 12:30N 36°53' W 076°20'0 0.0
2018-Feb-20 12:00N 36°53' W 076°20'0 0.0
2018-Feb-20 11:27N 36°53' W 076°20'0 0.0
2018-Feb-20 11:00N 36°53' W 076°20'0 0.0
2018-Feb-20 10:30N 36°53' W 076°20'1 1.2
2018-Feb-20 10:00N 36°53' W 076°21'0 0.7
2018-Feb-20 09:30N 36°52' W 076°21'0 0.1
2018-Feb-20 09:00N 36°52' W 076°21'0 1.0
2018-Feb-20 08:30N 36°53' W 076°20'0 0.4
2018-Feb-20 07:25N 36°53' W 076°20'0 0.0
2018-Feb-20 06:32N 36°53' W 076°20'0 0.1
2018-Feb-20 06:25N 36°53' W 076°20'0 0.1
2018-Feb-20 06:00N 36°53' W 076°20'0 0.0
2018-Feb-20 05:30N 36°53' W 076°20'0 0.0
2018-Feb-20 04:45N 36°53' W 076°20'0 0.0
2018-Feb-20 04:30N 36°53' W 076°20'0 0.0
2018-Feb-20 04:00N 36°53' W 076°20'0 0.0
2018-Feb-20 03:30N 36°53' W 076°20'0 0.0
2018-Feb-20 02:58N 36°53' W 076°20'0 0.0
2018-Feb-20 02:30N 36°53' W 076°20'0 0.0
2018-Feb-20 02:00N 36°53' W 076°20'0 0.0
2018-Feb-20 01:29N 36°53' W 076°20'0 0.0
2018-Feb-20 01:00N 36°53' W 076°20'0 0.0
2018-Feb-20 00:30N 36°53' W 076°20'0 0.0
2018-Feb-20 00:00N 36°53' W 076°20'0 0.0
2018-Feb-19 23:26N 36°53' W 076°20'0 0.0
2018-Feb-19 23:00N 36°53' W 076°20'0 0.0
2018-Feb-19 22:30N 36°53' W 076°20'0 0.0
2018-Feb-19 22:00N 36°53' W 076°20'0 0.0
2018-Feb-19 21:30N 36°53' W 076°20'0 0.0
2018-Feb-19 21:00N 36°53' W 076°20'0 1.0
2018-Feb-19 20:31N 36°52' W 076°20'4 8.8
2018-Feb-19 20:00N 36°48' W 076°17'0 0.0
2018-Feb-19 19:30N 36°48' W 076°17'0 0.2
2018-Feb-19 19:00N 36°48' W 076°17'3 5.4
2018-Feb-19 18:30N 36°51' W 076°18'1 2.1
2018-Feb-19 17:57N 36°51' W 076°19'0 0.0
2018-Feb-19 17:29N 36°51' W 076°19'0 0.0
2018-Feb-19 16:54N 36°51' W 076°19'0 0.0
2018-Feb-19 16:28N 36°51' W 076°19'0 0.0
2018-Feb-19 15:42N 36°51' W 076°19'0 0.0
2018-Feb-19 15:27N 36°51' W 076°19'0 0.1
2018-Feb-19 15:00N 36°52' W 076°19'1 2.3
2018-Feb-19 14:30N 36°53' W 076°20'0 0.5
2018-Feb-19 13:59N 36°53' W 076°20'0 0.2
2018-Feb-19 13:30N 36°53' W 076°20'4 7.1
2018-Feb-19 13:00N 36°50' W 076°17'0 0.5
2018-Feb-19 12:30N 36°50' W 076°16'0 0.0
2018-Feb-19 12:00N 36°50' W 076°16'0 0.0
2018-Feb-19 11:30N 36°50' W 076°16'0 0.0
2018-Feb-19 11:00N 36°50' W 076°16'0 0.0
2018-Feb-19 10:30N 36°50' W 076°16'0 0.0
2018-Feb-19 10:01N 36°50' W 076°16'0 0.0
2018-Feb-19 09:30N 36°50' W 076°16'0 0.0
2018-Feb-19 09:00N 36°50' W 076°16'0 0.0
2018-Feb-19 08:30N 36°50' W 076°16'0 0.0
2018-Feb-19 08:00N 36°50' W 076°16'0 0.0
2018-Feb-19 07:30N 36°50' W 076°16'0 0.0
2018-Feb-19 07:00N 36°50' W 076°16'0 0.0
2018-Feb-19 06:30N 36°50' W 076°16'0 0.0
2018-Feb-19 06:00N 36°50' W 076°16'0 0.0
2018-Feb-19 05:30N 36°50' W 076°16'0 0.0
2018-Feb-19 05:00N 36°50' W 076°16'0 0.0
2018-Feb-19 04:30N 36°50' W 076°16'0 0.0
2018-Feb-19 04:00N 36°50' W 076°16'0 0.0
2018-Feb-19 03:30N 36°50' W 076°16'0 0.0
2018-Feb-19 03:00N 36°50' W 076°16'0 0.0
2018-Feb-19 02:30N 36°50' W 076°16'0 0.0
2018-Feb-19 02:01N 36°50' W 076°16'0 0.0
2018-Feb-19 01:30N 36°50' W 076°16'0 0.0
2018-Feb-19 01:00N 36°50' W 076°16'0 0.0
2018-Feb-19 00:31N 36°50' W 076°16'0 0.0
2018-Feb-19 00:00N 36°50' W 076°16'2 3.7
2018-Feb-18 23:30N 36°51' W 076°18'1 1.1
2018-Feb-18 23:00N 36°51' W 076°19'0 0.0
2018-Feb-18 22:30N 36°51' W 076°19'0 0.0
2018-Feb-18 22:00N 36°51' W 076°19'0 0.0
2018-Feb-18 21:30N 36°51' W 076°19'0 0.0
2018-Feb-18 20:59N 36°51' W 076°19'1 2.6
2018-Feb-18 20:26N 36°53' W 076°20'0 0.0
2018-Feb-18 19:56N 36°53' W 076°20'0 0.0
2018-Feb-18 19:30N 36°53' W 076°20'3 5.9
2018-Feb-18 19:00N 36°51' W 076°17'1 1.8
2018-Feb-18 18:29N 36°50' W 076°16'0 0.0
2018-Feb-18 17:46N 36°50' W 076°16'0 0.0
2018-Feb-18 17:30N 36°50' W 076°16'0 0.0
2018-Feb-18 16:59N 36°50' W 076°16'0 0.0
2018-Feb-18 16:30N 36°50' W 076°16'0 0.0
2018-Feb-18 15:59N 36°50' W 076°16'0 0.0
2018-Feb-18 15:29N 36°50' W 076°16'0 0.0
2018-Feb-18 15:00N 36°50' W 076°16'0 0.0
2018-Feb-18 14:30N 36°50' W 076°16'0 0.0
2018-Feb-18 13:56N 36°50' W 076°16'0 0.0
2018-Feb-18 13:29N 36°50' W 076°16'0 0.0
2018-Feb-18 12:41N 36°50' W 076°16'1 5.5
2018-Feb-18 12:30N 36°51' W 076°18'3 6.4
2018-Feb-18 12:00N 36°52' W 076°21'0 0.1
2018-Feb-18 11:30N 36°52' W 076°21'0 0.5
2018-Feb-18 10:59N 36°53' W 076°21'2 3.4
2018-Feb-18 10:16N 36°55' W 076°20'1 2.8
2018-Feb-18 09:44N 36°54' W 076°20'1 5.9
2018-Feb-18 09:31N 36°52' W 076°21'0 0.0
2018-Feb-18 09:00N 36°52' W 076°21'0 0.0
2018-Feb-18 08:30N 36°52' W 076°21'0 0.0
2018-Feb-18 08:00N 36°52' W 076°21'0 0.0
2018-Feb-18 07:30N 36°52' W 076°21'0 0.0
2018-Feb-18 07:00N 36°52' W 076°21'2 3.5
2018-Feb-18 06:30N 36°52' W 076°19'0 0.5
2018-Feb-18 06:00N 36°51' W 076°19'1 1.2
2018-Feb-18 05:30N 36°52' W 076°20'1 1.4
2018-Feb-18 05:00N 36°53' W 076°20'0 0.0
2018-Feb-18 04:29N 36°53' W 076°20'0 0.0
2018-Feb-18 03:55N 36°53' W 076°20'0 0.0
2018-Feb-18 03:28N 36°53' W 076°20'0 0.0
2018-Feb-18 02:58N 36°53' W 076°20'0 0.0
2018-Feb-18 02:28N 36°53' W 076°20'0 0.0
2018-Feb-18 01:57N 36°53' W 076°20'0 0.0
2018-Feb-18 01:30N 36°53' W 076°20'0 0.0
2018-Feb-18 00:56N 36°53' W 076°20'0 0.0
2018-Feb-18 00:30N 36°53' W 076°20'0 0.0
2018-Feb-17 23:59N 36°53' W 076°20'0 0.0
2018-Feb-17 23:29N 36°53' W 076°20'0 0.0
2018-Feb-17 22:59N 36°53' W 076°20'1 2.7
2018-Feb-17 22:30N 36°51' W 076°19'2 2.8
2018-Feb-17 21:58N 36°53' W 076°20'0 0.5
2018-Feb-17 21:28N 36°53' W 076°20'0 0.0
2018-Feb-17 21:00N 36°53' W 076°20'0 0.1
2018-Feb-17 20:30N 36°53' W 076°20'0 0.1
2018-Feb-17 19:56N 36°53' W 076°20'0 0.3
2018-Feb-17 19:27N 36°53' W 076°20'0 0.0
2018-Feb-17 19:00N 36°53' W 076°20'0 0.0
2018-Feb-17 18:30N 36°53' W 076°20'0 0.0
2018-Feb-17 18:00N 36°53' W 076°20'0 0.0
2018-Feb-17 17:29N 36°53' W 076°20'0 0.0
2018-Feb-17 16:59N 36°53' W 076°20'0 0.0
2018-Feb-17 16:30N 36°53' W 076°20'0 0.0
2018-Feb-17 15:58N 36°53' W 076°20'0 0.0
2018-Feb-17 15:28N 36°53' W 076°20'0 0.0
2018-Feb-17 14:58N 36°53' W 076°20'0 0.0
2018-Feb-17 14:28N 36°53' W 076°20'0 0.1
2018-Feb-17 14:00N 36°53' W 076°20'0 0.0
2018-Feb-17 13:30N 36°53' W 076°20'2 3.0
2018-Feb-17 12:58N 36°54' W 076°20'1 1.9
2018-Feb-17 12:11N 36°53' W 076°20'0 0.9
2018-Feb-17 12:00N 36°53' W 076°20'0 0.6
2018-Feb-17 11:30N 36°53' W 076°20'0 0.2
2018-Feb-17 11:00N 36°53' W 076°20'3 5.3
2018-Feb-17 10:27N 36°56' W 076°20'0 0.0
2018-Feb-17 01:19N 36°56' W 076°20'0 0.0
2018-Feb-17 00:59N 36°56' W 076°20'0 0.0
2018-Feb-17 00:24N 36°56' W 076°20'0 0.0
2018-Feb-16 23:51N 36°56' W 076°20'0 0.0
2018-Feb-16 23:28N 36°56' W 076°20'0 0.2
2018-Feb-16 22:46N 36°56' W 076°20'0 0.8
2018-Feb-16 22:28N 36°56' W 076°20'2 3.7
2018-Feb-16 21:59N 36°57' W 076°20'2 3.1
2018-Feb-16 21:28N 36°56' W 076°20'0 0.0
2018-Feb-16 20:58N 36°56' W 076°20'4 9.4
2018-Feb-16 20:30N 36°52' W 076°19'0 0.3
2018-Feb-16 19:59N 36°51' W 076°19'0 0.0
2018-Feb-16 19:24N 36°51' W 076°19'0 0.0
2018-Feb-16 18:57N 36°51' W 076°19'0 0.0
2018-Feb-16 18:25N 36°51' W 076°19'0 0.0
2018-Feb-16 18:00N 36°51' W 076°19'2 3.3
2018-Feb-16 17:30N 36°52' W 076°21'0 0.3
2018-Feb-16 17:00N 36°53' W 076°21'2 4.0
2018-Feb-16 16:25N 36°55' W 076°20'2 4.8
2018-Feb-16 16:00N 36°53' W 076°20'0 0.6
2018-Feb-16 15:30N 36°53' W 076°20'0 0.0
2018-Feb-16 15:00N 36°53' W 076°20'0 0.0
2018-Feb-16 14:27N 36°53' W 076°20'0 0.0
2018-Feb-16 13:58N 36°53' W 076°20'0 0.0
2018-Feb-16 13:30N 36°53' W 076°20'0 0.0
2018-Feb-16 12:59N 36°53' W 076°20'0 0.0
2018-Feb-16 12:29N 36°53' W 076°20'0 0.0
2018-Feb-16 11:59N 36°53' W 076°20'1 2.2
2018-Feb-16 11:30N 36°52' W 076°21'0 0.1
2018-Feb-16 11:00N 36°52' W 076°21'0 0.0
2018-Feb-16 10:30N 36°52' W 076°21'0 0.0
2018-Feb-16 10:00N 36°52' W 076°21'1 1.7
2018-Feb-16 09:28N 36°53' W 076°20'0 0.4
2018-Feb-16 08:56N 36°53' W 076°20'0 0.9
2018-Feb-16 08:28N 36°53' W 076°20'0 0.3
2018-Feb-16 07:57N 36°53' W 076°20'0 0.2
2018-Feb-16 07:30N 36°53' W 076°20'0 0.0
2018-Feb-16 07:00N 36°53' W 076°20'2 4.5
2018-Feb-16 06:27N 36°55' W 076°20'1 1.0
2018-Feb-16 05:54N 36°56' W 076°20'0 0.2
2018-Feb-16 05:29N 36°56' W 076°20'4 7.0
2018-Feb-16 04:53N 36°51' W 076°19'0 0.0
2018-Feb-16 04:23N 36°51' W 076°19'0 0.0
2018-Feb-16 03:53N 36°51' W 076°19'0 0.0
2018-Feb-16 01:59N 36°51' W 076°19'0 0.0
2018-Feb-16 01:30N 36°51' W 076°19'0 0.0
2018-Feb-16 00:24N 36°51' W 076°19'0 0.0
2018-Feb-15 23:53N 36°51' W 076°19'0 0.0
2018-Feb-15 23:07N 36°51' W 076°19'0 0.0
2018-Feb-15 22:56N 36°51' W 076°19'0 0.0
2018-Feb-15 22:19N 36°51' W 076°19'0 1.0
2018-Feb-15 22:00N 36°51' W 076°20'0 0.7
2018-Feb-15 21:30N 36°52' W 076°19'2 2.9
2018-Feb-15 20:58N 36°53' W 076°20'0 0.9
2018-Feb-15 20:30N 36°53' W 076°20'0 0.0
2018-Feb-15 19:59N 36°53' W 076°20'3 6.6
2018-Feb-15 19:30N 36°50' W 076°17'1 1.5
2018-Feb-15 19:01N 36°50' W 076°16'0 0.0
2018-Feb-15 18:30N 36°50' W 076°16'0 0.0
2018-Feb-15 18:00N 36°50' W 076°16'0 0.0
2018-Feb-15 17:30N 36°50' W 076°16'0 0.0
2018-Feb-15 17:00N 36°50' W 076°16'0 0.0
2018-Feb-15 16:30N 36°50' W 076°16'0 0.0
2018-Feb-15 16:00N 36°50' W 076°16'0 0.0
2018-Feb-15 15:30N 36°50' W 076°16'0 0.0
2018-Feb-15 15:00N 36°50' W 076°16'0 0.0
2018-Feb-15 14:30N 36°50' W 076°16'0 0.5
2018-Feb-15 14:00N 36°50' W 076°17'2 4.3
2018-Feb-15 13:29N 36°51' W 076°19'0 0.0
2018-Feb-15 13:00N 36°51' W 076°19'0 0.0
2018-Feb-15 12:30N 36°51' W 076°19'0 0.7
2018-Feb-15 11:59N 36°52' W 076°19'0 0.4
2018-Feb-15 11:29N 36°51' W 076°20'1 2.8
2018-Feb-15 11:00N 36°53' W 076°20'0 0.0
2018-Feb-15 10:30N 36°53' W 076°20'0 1.0
2018-Feb-15 10:00N 36°53' W 076°20'0 0.8
2018-Feb-15 09:30N 36°53' W 076°21'1 1.8
2018-Feb-15 09:00N 36°53' W 076°20'0 0.0
2018-Feb-15 08:30N 36°53' W 076°20'0 0.0
2018-Feb-15 08:01N 36°53' W 076°20'0 0.0
2018-Feb-15 07:30N 36°53' W 076°20'0 0.0
2018-Feb-15 07:01N 36°53' W 076°20'0 0.0
2018-Feb-15 06:30N 36°53' W 076°20'0 0.0
2018-Feb-15 06:00N 36°53' W 076°20'0 0.0
2018-Feb-15 05:30N 36°53' W 076°20'0 0.0
2018-Feb-15 05:00N 36°53' W 076°20'0 0.0
2018-Feb-15 04:30N 36°53' W 076°20'0 0.0
2018-Feb-15 04:00N 36°53' W 076°20'1 1.8
2018-Feb-15 03:30N 36°52' W 076°21'0 0.0
2018-Feb-15 03:00N 36°52' W 076°21'2 3.3
2018-Feb-15 02:25N 36°54' W 076°20'2 2.9
2018-Feb-15 01:55N 36°53' W 076°20'0 0.0
2018-Feb-15 01:25N 36°53' W 076°20'0 0.0
2018-Feb-15 01:00N 36°53' W 076°20'0 0.0
2018-Feb-15 00:30N 36°53' W 076°20'0 0.0
2018-Feb-15 00:00N 36°53' W 076°20'1 2.5
2018-Feb-14 23:28N 36°51' W 076°20'0 0.0
2018-Feb-14 22:57N 36°51' W 076°20'0 1.0
2018-Feb-14 22:30N 36°52' W 076°19'2 3.2
2018-Feb-14 22:00N 36°53' W 076°20'1 1.1
2018-Feb-14 21:30N 36°53' W 076°20'0 0.0
2018-Feb-14 21:00N 36°53' W 076°20'0 0.0
2018-Feb-14 20:30N 36°53' W 076°20'0 0.0
2018-Feb-14 20:00N 36°53' W 076°20'3 5.5
2018-Feb-14 19:30N 36°51' W 076°18'2 3.3
2018-Feb-14 19:00N 36°49' W 076°17'3 5.7
2018-Feb-14 18:27N 36°52' W 076°19'1 2.6
2018-Feb-14 18:00N 36°53' W 076°20'1 2.8
2018-Feb-14 17:30N 36°51' W 076°19'0 0.0
2018-Feb-14 17:01N 36°51' W 076°19'2 3.7
2018-Feb-14 16:30N 36°51' W 076°17'1 1.3
2018-Feb-14 16:00N 36°50' W 076°16'0 0.2
2018-Feb-14 15:31N 36°50' W 076°16'0 0.0
2018-Feb-14 15:00N 36°50' W 076°16'3 5.9
2018-Feb-14 14:28N 36°52' W 076°20'1 1.2
2018-Feb-14 13:55N 36°53' W 076°20'0 0.9
2018-Feb-14 13:30N 36°53' W 076°20'0 0.6
2018-Feb-14 13:00N 36°53' W 076°20'0 0.0
2018-Feb-14 12:30N 36°53' W 076°20'3 5.0
2018-Feb-14 12:00N 36°51' W 076°18'1 2.6
2018-Feb-14 11:30N 36°50' W 076°16'0 0.0
2018-Feb-14 11:00N 36°50' W 076°16'0 0.0
2018-Feb-14 10:30N 36°50' W 076°16'0 0.0
2018-Feb-14 10:00N 36°50' W 076°16'0 0.0
2018-Feb-14 09:30N 36°50' W 076°16'0 0.0
2018-Feb-14 09:00N 36°50' W 076°16'0 0.0
2018-Feb-14 08:30N 36°50' W 076°16'0 0.0
2018-Feb-14 08:00N 36°50' W 076°16'0 0.0
2018-Feb-14 07:30N 36°50' W 076°16'  
Track history (hours):
 
Tides and Currents Weather Stations Pressure Air Temp Water Temp Dewpoint Dewpoint Depression Visibility Wind Speed Wind Dir Waves Ship Positions

Maxwell Paul Moran

Owner: MORAN TOWING CORPORATION, New Canaan, CT. More information available from US FCC via Universal Licensing System and Coast Guard Vessel Documentation Center.

Last reported at 2018-Feb-24 07:30 UTC. Time now 2018-Feb-24 07:55 UTC.
Position N 36°56' W 076°20'.

Length 28 m; draft 5.2 m.

Type: Tug. MMSI: 367756350.

Date/timePositionNaut miles runAvg speedWind from/ knotsBaromVisibWave heightAir tempDewpointWater temp
2018-Feb-24 07:30N 36°56' W 076°20'0 0.0
2018-Feb-24 06:56N 36°56' W 076°20'0 0.0
2018-Feb-24 06:26N 36°56' W 076°20'0 0.0
2018-Feb-24 05:56N 36°56' W 076°20'0 0.0
2018-Feb-24 05:30N 36°56' W 076°20'0 0.0
2018-Feb-24 05:00N 36°56' W 076°20'0 0.0
2018-Feb-24 04:28N 36°56' W 076°20'0 0.0
2018-Feb-24 03:58N 36°56' W 076°20'0 0.0
2018-Feb-24 03:17N 36°56' W 076°20'0 0.0
2018-Feb-24 02:57N 36°56' W 076°20'0 0.0
2018-Feb-24 02:26N 36°56' W 076°20'0 0.0
2018-Feb-24 02:00N 36°56' W 076°20'0 0.0
2018-Feb-24 01:30N 36°56' W 076°20'0 0.0
2018-Feb-23 23:43N 36°56' W 076°20'0 0.0
2018-Feb-23 23:28N 36°56' W 076°20'0 0.0
2018-Feb-23 22:56N 36°56' W 076°20'0 0.9
2018-Feb-23 22:26N 36°55' W 076°20'0 0.0
2018-Feb-23 22:00N 36°55' W 076°20'2 4.0
2018-Feb-23 21:25N 36°53' W 076°20'0 0.9
2018-Feb-23 21:00N 36°53' W 076°20'0 0.0
2018-Feb-23 20:21N 36°53' W 076°20'0 0.0
2018-Feb-23 19:57N 36°53' W 076°20'0 0.0
2018-Feb-23 19:29N 36°53' W 076°20'1 2.2
2018-Feb-23 18:53N 36°52' W 076°19'1 2.1
2018-Feb-23 18:30N 36°52' W 076°20'3 5.7
2018-Feb-23 17:59N 36°55' W 076°20'5 9.2
2018-Feb-23 17:25N 36°60' W 076°18'5 9.8
2018-Feb-23 16:57N 37°00' W 076°12'5 9.8
2018-Feb-23 16:27N 36°59' W 076°07'510.1
2018-Feb-23 15:58N 36°57' W 076°01'1 1.0
2018-Feb-23 15:20N 36°57' W 076°01'1 0.6
2018-Feb-23 14:19N 36°57' W 076°02'3 6.8
2018-Feb-23 13:57N 36°58' W 076°05'4 8.4
2018-Feb-23 13:27N 36°59' W 076°10'5 8.9
2018-Feb-23 12:56N 37°00' W 076°16'4 9.2
2018-Feb-23 12:28N 36°58' W 076°20'4 8.9
2018-Feb-23 12:00N 36°54' W 076°20'1 2.7
2018-Feb-23 11:30N 36°53' W 076°21'0 0.3
2018-Feb-23 11:00N 36°53' W 076°21'0 0.2
2018-Feb-23 10:29N 36°53' W 076°21'0 0.4
2018-Feb-23 10:00N 36°53' W 076°21'0 0.0
2018-Feb-23 09:30N 36°53' W 076°21'0 0.0
2018-Feb-23 08:58N 36°53' W 076°21'0 0.0
2018-Feb-23 08:30N 36°53' W 076°21'0 0.0
2018-Feb-23 08:00N 36°53' W 076°21'0 0.0
2018-Feb-23 07:28N 36°53' W 076°21'0 0.0
2018-Feb-23 07:00N 36°53' W 076°21'0 0.0
2018-Feb-23 06:27N 36°53' W 076°21'0 0.0
2018-Feb-23 06:00N 36°53' W 076°21'1 1.5
2018-Feb-23 05:29N 36°53' W 076°20'1 1.7
2018-Feb-23 05:01N 36°52' W 076°21'0 0.0
2018-Feb-23 04:30N 36°52' W 076°21'0 0.0
2018-Feb-23 04:00N 36°52' W 076°21'1 1.0
2018-Feb-23 02:59N 36°53' W 076°20'0 0.3
2018-Feb-23 02:30N 36°53' W 076°20'2 3.7
2018-Feb-23 02:00N 36°55' W 076°20'2 3.7
2018-Feb-23 01:30N 36°53' W 076°20'0 0.0
2018-Feb-23 00:59N 36°53' W 076°20'0 0.0
2018-Feb-23 00:30N 36°53' W 076°20'0 0.0
2018-Feb-23 00:00N 36°53' W 076°20'0 0.0
2018-Feb-22 23:30N 36°53' W 076°20'0 0.0
2018-Feb-22 23:00N 36°53' W 076°20'0 0.6
2018-Feb-22 22:30N 36°52' W 076°20'1 2.1
2018-Feb-22 22:00N 36°51' W 076°20'0 0.3
2018-Feb-22 21:30N 36°51' W 076°19'0 0.1
2018-Feb-22 21:00N 36°51' W 076°19'1 2.4
2018-Feb-22 20:28N 36°53' W 076°20'0 0.0
2018-Feb-22 20:00N 36°53' W 076°20'1 2.7
2018-Feb-22 19:30N 36°51' W 076°19'3 5.2
2018-Feb-22 19:00N 36°50' W 076°16'0 0.0
2018-Feb-22 18:30N 36°50' W 076°16'2 4.1
2018-Feb-22 18:00N 36°51' W 076°19'2 3.2
2018-Feb-22 17:27N 36°53' W 076°20'0 0.2
2018-Feb-22 17:00N 36°53' W 076°20'0 0.2
2018-Feb-22 16:30N 36°53' W 076°20'0 0.3
2018-Feb-22 16:00N 36°53' W 076°20'3 5.5
2018-Feb-22 15:30N 36°51' W 076°18'1 2.1
2018-Feb-22 15:01N 36°50' W 076°16'0 0.0
2018-Feb-22 14:30N 36°50' W 076°16'3 5.1
2018-Feb-22 14:00N 36°51' W 076°19'1 2.6
2018-Feb-22 13:29N 36°53' W 076°20'1 2.7
2018-Feb-22 12:56N 36°54' W 076°20'1 3.5
2018-Feb-22 12:30N 36°53' W 076°20'0 0.3
2018-Feb-22 11:57N 36°53' W 076°20'0 0.4
2018-Feb-22 11:30N 36°53' W 076°20'0 0.2
2018-Feb-22 11:00N 36°53' W 076°20'0 0.0
2018-Feb-22 10:29N 36°53' W 076°20'0 0.1
2018-Feb-22 10:00N 36°53' W 076°20'0 0.0
2018-Feb-22 09:30N 36°53' W 076°20'0 0.0
2018-Feb-22 09:00N 36°53' W 076°20'0 0.0
2018-Feb-22 08:31N 36°53' W 076°20'0 0.0
2018-Feb-22 08:00N 36°53' W 076°20'0 0.0
2018-Feb-22 07:30N 36°53' W 076°20'0 0.0
2018-Feb-22 07:00N 36°53' W 076°20'0 0.0
2018-Feb-22 06:29N 36°53' W 076°20'1 2.0
2018-Feb-22 06:00N 36°52' W 076°21'0 0.3
2018-Feb-22 05:30N 36°53' W 076°21'0 0.0
2018-Feb-22 05:00N 36°53' W 076°21'1 2.1
2018-Feb-22 04:30N 36°53' W 076°20'0 0.0
2018-Feb-22 04:00N 36°53' W 076°20'0 0.0
2018-Feb-22 03:30N 36°53' W 076°20'0 0.0
2018-Feb-22 02:57N 36°53' W 076°20'0 0.3
2018-Feb-22 02:30N 36°53' W 076°20'1 1.9
2018-Feb-22 01:52N 36°54' W 076°20'1 1.6
2018-Feb-22 01:29N 36°53' W 076°20'3 6.8
2018-Feb-22 01:00N 36°51' W 076°18'1 2.3
2018-Feb-22 00:30N 36°50' W 076°16'0 0.0
2018-Feb-22 00:01N 36°50' W 076°16'0 0.0
2018-Feb-21 23:30N 36°50' W 076°16'0 0.0
2018-Feb-21 23:00N 36°50' W 076°16'3 4.7
2018-Feb-21 22:27N 36°52' W 076°19'0 0.5
2018-Feb-21 21:56N 36°51' W 076°19'0 0.4
2018-Feb-21 21:30N 36°52' W 076°19'2 3.3
2018-Feb-21 21:00N 36°53' W 076°20'1 1.4
2018-Feb-21 20:29N 36°53' W 076°20'4 7.9
2018-Feb-21 20:00N 36°49' W 076°17'1 1.9
2018-Feb-21 19:30N 36°48' W 076°17'4 8.0
2018-Feb-21 18:58N 36°52' W 076°20'1 1.2
2018-Feb-21 18:26N 36°53' W 076°20'0 0.1
2018-Feb-21 18:00N 36°53' W 076°20'1 1.7
2018-Feb-21 17:30N 36°52' W 076°19'1 1.1
2018-Feb-21 17:00N 36°51' W 076°20'1 1.0
2018-Feb-21 16:30N 36°52' W 076°19'1 2.0
2018-Feb-21 16:00N 36°53' W 076°20'0 0.4
2018-Feb-21 15:26N 36°53' W 076°20'2 4.6
2018-Feb-21 15:00N 36°51' W 076°18'2 3.4
2018-Feb-21 14:30N 36°50' W 076°16'0 0.0
2018-Feb-21 14:00N 36°50' W 076°16'0 0.0
2018-Feb-21 13:30N 36°50' W 076°16'1 2.5
2018-Feb-21 13:00N 36°50' W 076°18'2 3.4
2018-Feb-21 12:30N 36°48' W 076°17'1 2.4
2018-Feb-21 12:00N 36°49' W 076°17'3 5.4
2018-Feb-21 11:30N 36°52' W 076°19'2 3.3
2018-Feb-21 11:00N 36°52' W 076°21'0 0.0
2018-Feb-21 10:30N 36°52' W 076°21'0 0.5
2018-Feb-21 09:58N 36°53' W 076°21'1 2.2
2018-Feb-21 09:26N 36°54' W 076°20'3 7.1
2018-Feb-21 09:00N 36°57' W 076°20'3 6.4
2018-Feb-21 08:30N 36°60' W 076°19'5 9.4
2018-Feb-21 08:00N 36°55' W 076°20'2 5.0
2018-Feb-21 07:30N 36°53' W 076°20'0 0.0
2018-Feb-21 07:00N 36°53' W 076°20'0 0.0
2018-Feb-21 06:31N 36°53' W 076°20'0 0.0
2018-Feb-21 06:00N 36°53' W 076°20'0 0.0
2018-Feb-21 05:29N 36°53' W 076°20'0 0.0
2018-Feb-21 05:01N 36°53' W 076°20'0 0.0
2018-Feb-21 03:24N 36°53' W 076°20'0 0.3
2018-Feb-21 03:00N 36°53' W 076°20'0 0.3
2018-Feb-21 02:30N 36°53' W 076°20'2 4.3
2018-Feb-21 02:00N 36°55' W 076°20'1 1.3
2018-Feb-21 01:29N 36°54' W 076°20'2 3.1
2018-Feb-21 00:59N 36°53' W 076°20'0 0.3
2018-Feb-21 00:30N 36°53' W 076°20'0 0.1
2018-Feb-21 00:00N 36°53' W 076°20'0 0.0
2018-Feb-20 23:18N 36°53' W 076°20'0 0.0
2018-Feb-20 22:51N 36°53' W 076°20'0 0.0
2018-Feb-20 22:08N 36°53' W 076°20'0 0.0
2018-Feb-20 21:58N 36°53' W 076°20'3 7.4
2018-Feb-20 21:30N 36°50' W 076°17'0 0.7
2018-Feb-20 21:00N 36°50' W 076°16'0 0.5
2018-Feb-20 20:29N 36°50' W 076°17'2 4.1
2018-Feb-20 20:00N 36°51' W 076°19'2 1.8
2018-Feb-20 19:07N 36°53' W 076°20'0 0.0
2018-Feb-20 18:56N 36°53' W 076°20'0 0.0
2018-Feb-20 18:03N 36°53' W 076°20'0 0.0
2018-Feb-20 17:59N 36°53' W 076°20'0 0.4
2018-Feb-20 17:30N 36°53' W 076°20'0 0.0
2018-Feb-20 17:00N 36°53' W 076°20'0 0.0
2018-Feb-20 16:30N 36°53' W 076°20'0 0.1
2018-Feb-20 16:00N 36°53' W 076°20'0 0.0
2018-Feb-20 13:55N 36°53' W 076°20'0 0.0
2018-Feb-20 13:30N 36°53' W 076°20'0 0.0
2018-Feb-20 12:53N 36°53' W 076°20'0 0.0
2018-Feb-20 12:30N 36°53' W 076°20'0 0.0
2018-Feb-20 12:00N 36°53' W 076°20'0 0.0
2018-Feb-20 11:27N 36°53' W 076°20'0 0.0
2018-Feb-20 11:00N 36°53' W 076°20'0 0.0
2018-Feb-20 10:30N 36°53' W 076°20'1 1.2
2018-Feb-20 10:00N 36°53' W 076°21'0 0.7
2018-Feb-20 09:30N 36°52' W 076°21'0 0.1
2018-Feb-20 09:00N 36°52' W 076°21'0 1.0
2018-Feb-20 08:30N 36°53' W 076°20'0 0.4
2018-Feb-20 07:25N 36°53' W 076°20'0 0.0
2018-Feb-20 06:32N 36°53' W 076°20'0 0.1
2018-Feb-20 06:25N 36°53' W 076°20'0 0.1
2018-Feb-20 06:00N 36°53' W 076°20'0 0.0
2018-Feb-20 05:30N 36°53' W 076°20'0 0.0
2018-Feb-20 04:45N 36°53' W 076°20'0 0.0
2018-Feb-20 04:30N 36°53' W 076°20'0 0.0
2018-Feb-20 04:00N 36°53' W 076°20'0 0.0
2018-Feb-20 03:30N 36°53' W 076°20'0 0.0
2018-Feb-20 02:58N 36°53' W 076°20'0 0.0
2018-Feb-20 02:30N 36°53' W 076°20'0 0.0
2018-Feb-20 02:00N 36°53' W 076°20'0 0.0
2018-Feb-20 01:29N 36°53' W 076°20'0 0.0
2018-Feb-20 01:00N 36°53' W 076°20'0 0.0
2018-Feb-20 00:30N 36°53' W 076°20'0 0.0
2018-Feb-20 00:00N 36°53' W 076°20'0 0.0
2018-Feb-19 23:26N 36°53' W 076°20'0 0.0
2018-Feb-19 23:00N 36°53' W 076°20'0 0.0
2018-Feb-19 22:30N 36°53' W 076°20'0 0.0
2018-Feb-19 22:00N 36°53' W 076°20'0 0.0
2018-Feb-19 21:30N 36°53' W 076°20'0 0.0
2018-Feb-19 21:00N 36°53' W 076°20'0 1.0
2018-Feb-19 20:31N 36°52' W 076°20'4 8.8
2018-Feb-19 20:00N 36°48' W 076°17'0 0.0
2018-Feb-19 19:30N 36°48' W 076°17'0 0.2
2018-Feb-19 19:00N 36°48' W 076°17'3 5.4
2018-Feb-19 18:30N 36°51' W 076°18'1 2.1
2018-Feb-19 17:57N 36°51' W 076°19'0 0.0
2018-Feb-19 17:29N 36°51' W 076°19'0 0.0
2018-Feb-19 16:54N 36°51' W 076°19'0 0.0
2018-Feb-19 16:28N 36°51' W 076°19'0 0.0
2018-Feb-19 15:42N 36°51' W 076°19'0 0.0
2018-Feb-19 15:27N 36°51' W 076°19'0 0.1
2018-Feb-19 15:00N 36°52' W 076°19'1 2.3
2018-Feb-19 14:30N 36°53' W 076°20'0 0.5
2018-Feb-19 13:59N 36°53' W 076°20'0 0.2
2018-Feb-19 13:30N 36°53' W 076°20'4 7.1
2018-Feb-19 13:00N 36°50' W 076°17'0 0.5
2018-Feb-19 12:30N 36°50' W 076°16'0 0.0
2018-Feb-19 12:00N 36°50' W 076°16'0 0.0
2018-Feb-19 11:30N 36°50' W 076°16'0 0.0
2018-Feb-19 11:00N 36°50' W 076°16'0 0.0
2018-Feb-19 10:30N 36°50' W 076°16'0 0.0
2018-Feb-19 10:01N 36°50' W 076°16'0 0.0
2018-Feb-19 09:30N 36°50' W 076°16'0 0.0
2018-Feb-19 09:00N 36°50' W 076°16'0 0.0
2018-Feb-19 08:30N 36°50' W 076°16'0 0.0
2018-Feb-19 08:00N 36°50' W 076°16'0 0.0
2018-Feb-19 07:30N 36°50' W 076°16'0 0.0
2018-Feb-19 07:00N 36°50' W 076°16'0 0.0
2018-Feb-19 06:30N 36°50' W 076°16'0 0.0
2018-Feb-19 06:00N 36°50' W 076°16'0 0.0
2018-Feb-19 05:30N 36°50' W 076°16'0 0.0
2018-Feb-19 05:00N 36°50' W 076°16'0 0.0
2018-Feb-19 04:30N 36°50' W 076°16'0 0.0
2018-Feb-19 04:00N 36°50' W 076°16'0 0.0
2018-Feb-19 03:30N 36°50' W 076°16'0 0.0
2018-Feb-19 03:00N 36°50' W 076°16'0 0.0
2018-Feb-19 02:30N 36°50' W 076°16'0 0.0
2018-Feb-19 02:01N 36°50' W 076°16'0 0.0
2018-Feb-19 01:30N 36°50' W 076°16'0 0.0
2018-Feb-19 01:00N 36°50' W 076°16'0 0.0
2018-Feb-19 00:31N 36°50' W 076°16'0 0.0
2018-Feb-19 00:00N 36°50' W 076°16'2 3.7
2018-Feb-18 23:30N 36°51' W 076°18'1 1.1
2018-Feb-18 23:00N 36°51' W 076°19'0 0.0
2018-Feb-18 22:30N 36°51' W 076°19'0 0.0
2018-Feb-18 22:00N 36°51' W 076°19'0 0.0
2018-Feb-18 21:30N 36°51' W 076°19'0 0.0
2018-Feb-18 20:59N 36°51' W 076°19'1 2.6
2018-Feb-18 20:26N 36°53' W 076°20'0 0.0
2018-Feb-18 19:56N 36°53' W 076°20'0 0.0
2018-Feb-18 19:30N 36°53' W 076°20'3 5.9
2018-Feb-18 19:00N 36°51' W 076°17'1 1.8
2018-Feb-18 18:29N 36°50' W 076°16'0 0.0
2018-Feb-18 17:46N 36°50' W 076°16'0 0.0
2018-Feb-18 17:30N 36°50' W 076°16'0 0.0
2018-Feb-18 16:59N 36°50' W 076°16'0 0.0
2018-Feb-18 16:30N 36°50' W 076°16'0 0.0
2018-Feb-18 15:59N 36°50' W 076°16'0 0.0
2018-Feb-18 15:29N 36°50' W 076°16'0 0.0
2018-Feb-18 15:00N 36°50' W 076°16'0 0.0
2018-Feb-18 14:30N 36°50' W 076°16'0 0.0
2018-Feb-18 13:56N 36°50' W 076°16'0 0.0
2018-Feb-18 13:29N 36°50' W 076°16'0 0.0
2018-Feb-18 12:41N 36°50' W 076°16'1 5.5
2018-Feb-18 12:30N 36°51' W 076°18'3 6.4
2018-Feb-18 12:00N 36°52' W 076°21'0 0.1
2018-Feb-18 11:30N 36°52' W 076°21'0 0.5
2018-Feb-18 10:59N 36°53' W 076°21'2 3.4
2018-Feb-18 10:16N 36°55' W 076°20'1 2.8
2018-Feb-18 09:44N 36°54' W 076°20'1 5.9
2018-Feb-18 09:31N 36°52' W 076°21'0 0.0
2018-Feb-18 09:00N 36°52' W 076°21'0 0.0
2018-Feb-18 08:30N 36°52' W 076°21'0 0.0
2018-Feb-18 08:00N 36°52' W 076°21'0 0.0
2018-Feb-18 07:30N 36°52' W 076°21'0 0.0
2018-Feb-18 07:00N 36°52' W 076°21'2 3.5
2018-Feb-18 06:30N 36°52' W 076°19'0 0.5
2018-Feb-18 06:00N 36°51' W 076°19'1 1.2
2018-Feb-18 05:30N 36°52' W 076°20'1 1.4
2018-Feb-18 05:00N 36°53' W 076°20'0 0.0
2018-Feb-18 04:29N 36°53' W 076°20'0 0.0
2018-Feb-18 03:55N 36°53' W 076°20'0 0.0
2018-Feb-18 03:28N 36°53' W 076°20'0 0.0
2018-Feb-18 02:58N 36°53' W 076°20'0 0.0
2018-Feb-18 02:28N 36°53' W 076°20'0 0.0
2018-Feb-18 01:57N 36°53' W 076°20'0 0.0
2018-Feb-18 01:30N 36°53' W 076°20'0 0.0
2018-Feb-18 00:56N 36°53' W 076°20'0 0.0
2018-Feb-18 00:30N 36°53' W 076°20'0 0.0
2018-Feb-17 23:59N 36°53' W 076°20'0 0.0
2018-Feb-17 23:29N 36°53' W 076°20'0 0.0
2018-Feb-17 22:59N 36°53' W 076°20'1 2.7
2018-Feb-17 22:30N 36°51' W 076°19'2 2.8
2018-Feb-17 21:58N 36°53' W 076°20'0 0.5
2018-Feb-17 21:28N 36°53' W 076°20'0 0.0
2018-Feb-17 21:00N 36°53' W 076°20'0 0.1
2018-Feb-17 20:30N 36°53' W 076°20'0 0.1
2018-Feb-17 19:56N 36°53' W 076°20'0 0.3
2018-Feb-17 19:27N 36°53' W 076°20'0 0.0
2018-Feb-17 19:00N 36°53' W 076°20'0 0.0
2018-Feb-17 18:30N 36°53' W 076°20'0 0.0
2018-Feb-17 18:00N 36°53' W 076°20'0 0.0
2018-Feb-17 17:29N 36°53' W 076°20'0 0.0
2018-Feb-17 16:59N 36°53' W 076°20'0 0.0
2018-Feb-17 16:30N 36°53' W 076°20'0 0.0
2018-Feb-17 15:58N 36°53' W 076°20'0 0.0
2018-Feb-17 15:28N 36°53' W 076°20'0 0.0
2018-Feb-17 14:58N 36°53' W 076°20'0 0.0
2018-Feb-17 14:28N 36°53' W 076°20'0 0.1
2018-Feb-17 14:00N 36°53' W 076°20'0 0.0
2018-Feb-17 13:30N 36°53' W 076°20'2 3.0
2018-Feb-17 12:58N 36°54' W 076°20'1 1.9
2018-Feb-17 12:11N 36°53' W 076°20'0 0.9
2018-Feb-17 12:00N 36°53' W 076°20'0 0.6
2018-Feb-17 11:30N 36°53' W 076°20'0 0.2
2018-Feb-17 11:00N 36°53' W 076°20'3 5.3
2018-Feb-17 10:27N 36°56' W 076°20'0 0.0
2018-Feb-17 01:19N 36°56' W 076°20'0 0.0
2018-Feb-17 00:59N 36°56' W 076°20'0 0.0
2018-Feb-17 00:24N 36°56' W 076°20'0 0.0
2018-Feb-16 23:51N 36°56' W 076°20'0 0.0
2018-Feb-16 23:28N 36°56' W 076°20'0 0.2
2018-Feb-16 22:46N 36°56' W 076°20'0 0.8
2018-Feb-16 22:28N 36°56' W 076°20'2 3.7
2018-Feb-16 21:59N 36°57' W 076°20'2 3.1
2018-Feb-16 21:28N 36°56' W 076°20'0 0.0
2018-Feb-16 20:58N 36°56' W 076°20'4 9.4
2018-Feb-16 20:30N 36°52' W 076°19'0 0.3
2018-Feb-16 19:59N 36°51' W 076°19'0 0.0
2018-Feb-16 19:24N 36°51' W 076°19'0 0.0
2018-Feb-16 18:57N 36°51' W 076°19'0 0.0
2018-Feb-16 18:25N 36°51' W 076°19'0 0.0
2018-Feb-16 18:00N 36°51' W 076°19'2 3.3
2018-Feb-16 17:30N 36°52' W 076°21'0 0.3
2018-Feb-16 17:00N 36°53' W 076°21'2 4.0
2018-Feb-16 16:25N 36°55' W 076°20'2 4.8
2018-Feb-16 16:00N 36°53' W 076°20'0 0.6
2018-Feb-16 15:30N 36°53' W 076°20'0 0.0
2018-Feb-16 15:00N 36°53' W 076°20'0 0.0
2018-Feb-16 14:27N 36°53' W 076°20'0 0.0
2018-Feb-16 13:58N 36°53' W 076°20'0 0.0
2018-Feb-16 13:30N 36°53' W 076°20'0 0.0
2018-Feb-16 12:59N 36°53' W 076°20'0 0.0
2018-Feb-16 12:29N 36°53' W 076°20'0 0.0
2018-Feb-16 11:59N 36°53' W 076°20'1 2.2
2018-Feb-16 11:30N 36°52' W 076°21'0 0.1
2018-Feb-16 11:00N 36°52' W 076°21'0 0.0
2018-Feb-16 10:30N 36°52' W 076°21'0 0.0
2018-Feb-16 10:00N 36°52' W 076°21'1 1.7
2018-Feb-16 09:28N 36°53' W 076°20'0 0.4
2018-Feb-16 08:56N 36°53' W 076°20'0 0.9
2018-Feb-16 08:28N 36°53' W 076°20'0 0.3
2018-Feb-16 07:57N 36°53' W 076°20'0 0.2
2018-Feb-16 07:30N 36°53' W 076°20'0 0.0
2018-Feb-16 07:00N 36°53' W 076°20'2 4.5
2018-Feb-16 06:27N 36°55' W 076°20'1 1.0
2018-Feb-16 05:54N 36°56' W 076°20'0 0.2
2018-Feb-16 05:29N 36°56' W 076°20'4 7.0
2018-Feb-16 04:53N 36°51' W 076°19'0 0.0
2018-Feb-16 04:23N 36°51' W 076°19'0 0.0
2018-Feb-16 03:53N 36°51' W 076°19'0 0.0
2018-Feb-16 01:59N 36°51' W 076°19'0 0.0
2018-Feb-16 01:30N 36°51' W 076°19'0 0.0
2018-Feb-16 00:24N 36°51' W 076°19'0 0.0
2018-Feb-15 23:53N 36°51' W 076°19'0 0.0
2018-Feb-15 23:07N 36°51' W 076°19'0 0.0
2018-Feb-15 22:56N 36°51' W 076°19'0 0.0
2018-Feb-15 22:19N 36°51' W 076°19'0 1.0
2018-Feb-15 22:00N 36°51' W 076°20'0 0.7
2018-Feb-15 21:30N 36°52' W 076°19'2 2.9
2018-Feb-15 20:58N 36°53' W 076°20'0 0.9
2018-Feb-15 20:30N 36°53' W 076°20'0 0.0
2018-Feb-15 19:59N 36°53' W 076°20'3 6.6
2018-Feb-15 19:30N 36°50' W 076°17'1 1.5
2018-Feb-15 19:01N 36°50' W 076°16'0 0.0
2018-Feb-15 18:30N 36°50' W 076°16'0 0.0
2018-Feb-15 18:00N 36°50' W 076°16'0 0.0
2018-Feb-15 17:30N 36°50' W 076°16'0 0.0
2018-Feb-15 17:00N 36°50' W 076°16'0 0.0
2018-Feb-15 16:30N 36°50' W 076°16'0 0.0
2018-Feb-15 16:00N 36°50' W 076°16'0 0.0
2018-Feb-15 15:30N 36°50' W 076°16'0 0.0
2018-Feb-15 15:00N 36°50' W 076°16'0 0.0
2018-Feb-15 14:30N 36°50' W 076°16'0 0.5
2018-Feb-15 14:00N 36°50' W 076°17'2 4.3
2018-Feb-15 13:29N 36°51' W 076°19'0 0.0
2018-Feb-15 13:00N 36°51' W 076°19'0 0.0
2018-Feb-15 12:30N 36°51' W 076°19'0 0.7
2018-Feb-15 11:59N 36°52' W 076°19'0 0.4
2018-Feb-15 11:29N 36°51' W 076°20'1 2.8
2018-Feb-15 11:00N 36°53' W 076°20'0 0.0
2018-Feb-15 10:30N 36°53' W 076°20'0 1.0
2018-Feb-15 10:00N 36°53' W 076°20'0 0.8
2018-Feb-15 09:30N 36°53' W 076°21'1 1.8
2018-Feb-15 09:00N 36°53' W 076°20'0 0.0
2018-Feb-15 08:30N 36°53' W 076°20'0 0.0
2018-Feb-15 08:01N 36°53' W 076°20'0 0.0
2018-Feb-15 07:30N 36°53' W 076°20'0 0.0
2018-Feb-15 07:01N 36°53' W 076°20'0 0.0
2018-Feb-15 06:30N 36°53' W 076°20'0 0.0
2018-Feb-15 06:00N 36°53' W 076°20'0 0.0
2018-Feb-15 05:30N 36°53' W 076°20'0 0.0
2018-Feb-15 05:00N 36°53' W 076°20'0 0.0
2018-Feb-15 04:30N 36°53' W 076°20'0 0.0
2018-Feb-15 04:00N 36°53' W 076°20'1 1.8
2018-Feb-15 03:30N 36°52' W 076°21'0 0.0
2018-Feb-15 03:00N 36°52' W 076°21'2 3.3
2018-Feb-15 02:25N 36°54' W 076°20'2 2.9
2018-Feb-15 01:55N 36°53' W 076°20'0 0.0
2018-Feb-15 01:25N 36°53' W 076°20'0 0.0
2018-Feb-15 01:00N 36°53' W 076°20'0 0.0
2018-Feb-15 00:30N 36°53' W 076°20'0 0.0
2018-Feb-15 00:00N 36°53' W 076°20'1 2.5
2018-Feb-14 23:28N 36°51' W 076°20'0 0.0
2018-Feb-14 22:57N 36°51' W 076°20'0 1.0
2018-Feb-14 22:30N 36°52' W 076°19'2 3.2
2018-Feb-14 22:00N 36°53' W 076°20'1 1.1
2018-Feb-14 21:30N 36°53' W 076°20'0 0.0
2018-Feb-14 21:00N 36°53' W 076°20'0 0.0
2018-Feb-14 20:30N 36°53' W 076°20'0 0.0
2018-Feb-14 20:00N 36°53' W 076°20'3 5.5
2018-Feb-14 19:30N 36°51' W 076°18'2 3.3
2018-Feb-14 19:00N 36°49' W 076°17'3 5.7
2018-Feb-14 18:27N 36°52' W 076°19'1 2.6
2018-Feb-14 18:00N 36°53' W 076°20'1 2.8
2018-Feb-14 17:30N 36°51' W 076°19'0 0.0
2018-Feb-14 17:01N 36°51' W 076°19'2 3.7
2018-Feb-14 16:30N 36°51' W 076°17'1 1.3
2018-Feb-14 16:00N 36°50' W 076°16'0 0.2
2018-Feb-14 15:31N 36°50' W 076°16'0 0.0
2018-Feb-14 15:00N 36°50' W 076°16'3 5.9
2018-Feb-14 14:28N 36°52' W 076°20'1 1.2
2018-Feb-14 13:55N 36°53' W 076°20'0 0.9
2018-Feb-14 13:30N 36°53' W 076°20'0 0.6
2018-Feb-14 13:00N 36°53' W 076°20'0 0.0
2018-Feb-14 12:30N 36°53' W 076°20'3 5.0
2018-Feb-14 12:00N 36°51' W 076°18'1 2.6
2018-Feb-14 11:30N 36°50' W 076°16'0 0.0
2018-Feb-14 11:00N 36°50' W 076°16'0 0.0
2018-Feb-14 10:30N 36°50' W 076°16'0 0.0
2018-Feb-14 10:00N 36°50' W 076°16'0 0.0
2018-Feb-14 09:30N 36°50' W 076°16'0 0.0
2018-Feb-14 09:00N 36°50' W 076°16'0 0.0
2018-Feb-14 08:30N 36°50' W 076°16'0 0.0
2018-Feb-14 08:00N 36°50' W 076°16'0 0.0
2018-Feb-14 07:30N 36°50' W 076°16'  

Dump ship's entire track history